Hlavní strana
METAR-TAF:

METAR-TAF

Letiště :

Letiště Managua

Managua, Nikaragua

zeměpisná šířka: 12-09N, zeměpisná délka: 086-10W, výška: 50 m

Aktuální stav počasí

Zpráva byla vytvořena před 1 hodinou a 2 minutami, v 22:00 UTC
Východní vítr 10 kt
Teplota 32°C
Vlhkost vzduchu 49%
Tlak 1008 hPa
Viditelnost 10 km a více
Polojasno ve výšce 2400 ft
Polojasno ve výšce 7000 ft

METAR: MNMG 152200Z 08010KT 9999 SCT024 SCT070 32/20 Q1007 A2976 NOSIG

Čas: 17:02 (23:02 UTC)

Předpověď počasí

Zpráva byla vytvořena před 8 hodinami a 12 minutami, v 14:50 UTC
Předpověď platná od 15 v 18 UTC do 16 v 18 UTC
Východoseverovýchodní vítr 14 kt
Viditelnost 10 km a více
Polojasno ve výšce 2100 ft
Změna
od 16 v 02 UTC do 16 v 04 UTC
Východojihovýchodní vítr 8 kt
Skoro jasno ve výšce 2000 ft

TAF: MNMG 151450Z 1518/1618 06014KT 9999 SCT021 BECMG 1602/1604 12008KT FEW020

Stav a předpovědi počasí z více než 4 000 letišť (zprávy METAR a TAF).

Červené a žluté tečky na mapě představují dostupné meteorologické stanice.

Když kurzor umístíte na tečku, zobrazí se název stanice.

Pak kliknutím zobrazíte stav a předpověď počasí.

Chcete-li změnit mapu, kliknutím na zelené tlačítko se znaménkem +mapu přiblížíte, kliknutím na zelené tlačítko se znaménkem – mapu oddálíte a kliknutím na zelené šipky přejdete na sousední mapy.


METAR-TAF: